Погода Пасынковона неделю

Тверская область, Россия

24 - 30 мая
  • 24мая
    Сегодня
    +8°
    +23°
    Ясно и безоблачно
    ВремяПогодаТемператураВлажностьДавлениеВетер, м/сВероятность осадков
    00:00Практически безоблачно+11°C61 %761 мм0.3 м/с2 %
    03:00Ясно и безоблачно+8°C62 %762 мм0.0 м/с2 %
    06:00Ясно и безоблачно+11°C63 %763 мм0.1 м/с2 %
    09:00Ясно и безоблачно+18°C46 %763 мм1.1 м/с2 %
    12:00Ясно и безоблачно+22°C34 %763 мм0.3 м/с2 %
    15:00Ясно и безоблачно+23°C33 %762 мм0.4 м/с2 %
    18:00Ясно и безоблачно+23°C35 %761 мм0.5 м/с2 %
    21:00Ясно и безоблачно+17°C51 %761 мм0.5 м/с2 %
  • 25мая
    Суббота
    +11°
    +25°
    Ясно и безоблачно
    ВремяПогодаТемператураВлажностьДавлениеВетер, м/сВероятность осадков
    00:00Ясно и безоблачно+12°C57 %761 мм0.6 м/с2 %
    03:00Ясно и безоблачно+9°C65 %762 мм1.7 м/с2 %
    06:00Ясно и безоблачно+11°C68 %762 мм0.4 м/с2 %
    09:00Практически безоблачно+18°C43 %761 мм2.0 м/с2 %
    12:00Ясно и безоблачно+21°C33 %760 мм2.1 м/с2 %
    15:00Ясно и безоблачно+24°C29 %759 мм2.1 м/с2 %
    18:00Ясно и безоблачно+24°C31 %757 мм1.6 м/с2 %
    21:00Ясно и безоблачно+17°C48 %757 мм0.5 м/с2 %
  • 26мая
    Воскресенье
    +5°
    +22°
    Облачно с прояснениями, небольшой дождь
    ВремяПогодаТемператураВлажностьДавлениеВетер, м/сВероятность осадков
    00:00Ясно и безоблачно+13°C58 %756 мм0.7 м/с2 %
    03:00Ясно и безоблачно+11°C70 %756 мм1.4 м/с2 %
    06:00Ясно и безоблачно+14°C70 %756 мм0.2 м/с4 %
    09:00Облачно с прояснениями+18°C59 %756 мм1.4 м/с18 %
    12:00Пасмурно, небольшой дождь+19°C57 %757 мм1.4 м/с55 %
    15:00Облачно с прояснениями, небольшой дождь+20°C58 %757 мм1.8 м/с64 %
    18:00Практически безоблачно+21°C49 %757 мм1.5 м/с34 %
    21:00Практически безоблачно+15°C48 %758 мм1.1 м/с10 %
  • 27мая
    Понедельник
    +5°
    +22°
    Практически безоблачно
    ВремяПогодаТемператураВлажностьДавлениеВетер, м/сВероятность осадков
    00:00Ясно и безоблачно+11°C53 %759 мм0.9 м/с2 %
    03:00Ясно и безоблачно+5°C65 %760 мм1.1 м/с2 %
    06:00Ясно и безоблачно+9°C61 %761 мм0.3 м/с2 %
    09:00Практически безоблачно+16°C46 %762 мм1.8 м/с2 %
    12:00Ясно и безоблачно+19°C39 %762 мм1.5 м/с2 %
    15:00Практически безоблачно+21°C35 %761 мм0.9 м/с2 %
    18:00Ясно и безоблачно+22°C33 %760 мм0.3 м/с2 %
    21:00Ясно и безоблачно+15°C47 %760 мм0.0 м/с2 %
  • 28мая
    Вторник
    +8°
    +25°
    Ясно и безоблачно
    ВремяПогодаТемператураВлажностьДавлениеВетер, м/сВероятность осадков
    00:00Ясно и безоблачно+11°C64 %760 мм0.1 м/с2 %
    03:00Ясно и безоблачно+6°C81 %760 мм0.3 м/с2 %
    06:00Ясно и безоблачно+11°C68 %760 мм0.0 м/с2 %
    09:00Ясно и безоблачно+19°C47 %760 мм1.2 м/с2 %
    12:00Ясно и безоблачно+23°C36 %760 мм0.9 м/с2 %
    15:00Ясно и безоблачно+25°C33 %759 мм0.7 м/с2 %
    18:00Ясно и безоблачно+24°C36 %758 мм0.3 м/с2 %
    21:00Ясно и безоблачно+18°C51 %757 мм0.1 м/с2 %
Мы используем cookies
Соглашаюсь